60MD weather

Walter Reed National Medical Center Heliport
Bethesda, Maryland, United States

Public forecast

Using degrees Fahrenheit for public forecast. Weather courtesy of forecast.io.

Closest aviation weather report (METAR) to Walter Reed National Medical Center Heliport

Closest report is College Park Airport, 8.2 nm (15.1 km) E. Retrieved 2020/04/03 03:06 UTC (0 seconds ago):

KCGS 030306Z AUTO 32007KT 10SM CLR 12/M07 A2983 RMK AO1 T01221070

Closest aviation forecast (TAF) to Walter Reed National Medical Center Heliport

Closest forecast is Ronald Reagan Washington National Airport, 9.3 nm (17.2 km) SSE. Retrieved 2020-04-03 00:27 UTC (3 hours ago):

TAF KDCA 022324Z 0300/0406 32017G27KT P6SM SKC FM030200 32012G22KT P6SM SKC FM031300 33018G27KT P6SM FEW070 FM031600 34018G27KT P6SM BKN070 FM032200 35012G24KT P6SM SCT030 OVC050